createdAt,value
2018-05-07T00:01:44.486Z,1.10
2018-05-07T00:04:11.930Z,1.00
2018-05-07T00:06:39.629Z,0.77
2018-05-07T00:09:07.062Z,1.10
2018-05-07T00:11:34.617Z,1.10
2018-05-07T00:14:02.922Z,0.90
2018-05-07T00:16:31.095Z,1.10
2018-05-07T00:18:58.535Z,1.10
2018-05-07T00:21:26.038Z,1.20
2018-05-07T00:23:53.570Z,0.90
2018-05-07T00:26:21.035Z,0.90
2018-05-07T00:28:48.682Z,0.97
2018-05-07T00:31:16.131Z,1.00
2018-05-07T00:33:43.580Z,0.80
2018-05-07T00:38:45.577Z,1.00
2018-05-07T00:41:13.350Z,1.07
2018-05-07T00:43:40.803Z,1.10
2018-05-07T00:46:08.247Z,1.00
2018-05-07T00:48:36.027Z,0.93
2018-05-07T00:51:03.479Z,0.83
2018-05-07T00:53:30.928Z,0.87
2018-05-07T00:56:00.043Z,0.70
2018-05-07T00:58:27.495Z,0.90
2018-05-07T01:00:54.944Z,1.00
2018-05-07T01:03:22.719Z,0.73
2018-05-07T01:05:50.179Z,0.80
2018-05-07T01:08:20.186Z,0.90
2018-05-07T01:10:47.953Z,0.90
2018-05-07T01:13:15.399Z,0.90
2018-05-07T01:15:42.876Z,0.83
2018-05-07T01:18:10.946Z,1.00
2018-05-07T01:20:38.390Z,0.90
2018-05-07T01:23:05.818Z,0.90
2018-05-07T01:25:34.754Z,0.90
2018-05-07T01:28:02.202Z,0.90
2018-05-07T01:30:29.659Z,1.00
2018-05-07T01:32:57.540Z,0.80
2018-05-07T01:35:24.995Z,0.90
2018-05-07T01:37:52.452Z,0.90
2018-05-07T01:40:20.216Z,1.00
2018-05-07T01:42:47.663Z,0.70
2018-05-07T01:45:15.111Z,0.90
2018-05-07T01:47:42.875Z,1.10
2018-05-07T01:50:10.357Z,0.80
2018-05-07T01:52:37.802Z,0.90
2018-05-07T01:55:05.574Z,0.90
2018-05-07T01:57:33.022Z,0.70
2018-05-07T02:00:00.458Z,0.80
2018-05-07T02:02:28.161Z,0.90
2018-05-07T02:04:55.602Z,0.93
2018-05-07T02:07:23.070Z,0.80
2018-05-07T02:09:51.242Z,0.90
2018-05-07T02:12:18.703Z,0.80
2018-05-07T02:14:46.163Z,0.90
2018-05-07T02:17:13.654Z,0.77
2018-05-07T02:19:42.807Z,0.90
2018-05-07T02:22:10.263Z,1.00
2018-05-07T02:24:37.944Z,1.00
2018-05-07T02:27:05.386Z,0.80
2018-05-07T02:29:32.845Z,0.73
2018-05-07T02:32:01.955Z,0.87
2018-05-07T02:34:29.398Z,0.70
2018-05-07T02:36:56.860Z,0.80
2018-05-07T02:39:24.518Z,0.80
2018-05-07T02:41:51.977Z,0.90
2018-05-07T02:44:19.434Z,1.00
2018-05-07T02:46:47.194Z,0.87
2018-05-07T02:49:14.655Z,0.60
2018-05-07T02:51:42.115Z,0.70
2018-05-07T02:54:11.319Z,0.80
2018-05-07T02:56:38.758Z,0.80
2018-05-07T02:59:06.231Z,0.83
2018-05-07T03:01:33.999Z,0.80
2018-05-07T03:04:01.442Z,0.80
2018-05-07T03:06:28.891Z,0.80
2018-05-07T03:08:59.491Z,0.80
2018-05-07T03:11:27.726Z,0.80
2018-05-07T03:13:55.172Z,1.00
2018-05-07T03:16:22.666Z,0.80
2018-05-07T03:18:50.882Z,0.90
2018-05-07T03:21:18.328Z,0.97
2018-05-07T03:23:46.027Z,0.90
2018-05-07T03:26:13.474Z,0.90
2018-05-07T03:28:40.915Z,0.80
2018-05-07T03:31:09.323Z,0.93
2018-05-07T03:33:36.768Z,0.70
2018-05-07T03:36:04.212Z,0.80
2018-05-07T03:38:32.078Z,0.60
2018-05-07T03:40:59.566Z,0.70
2018-05-07T03:43:27.011Z,0.83
2018-05-07T03:45:54.494Z,0.80
2018-05-07T03:48:22.035Z,0.90
2018-05-07T03:50:49.482Z,1.00
2018-05-07T03:53:18.178Z,0.70
2018-05-07T03:55:45.638Z,0.80
2018-05-07T03:58:13.082Z,0.73
2018-05-07T04:00:40.958Z,0.67
2018-05-07T04:03:08.416Z,0.70
2018-05-07T04:05:35.878Z,0.83
2018-05-07T04:08:06.609Z,0.70
2018-05-07T04:10:34.229Z,0.70
2018-05-07T04:13:01.669Z,0.70
2018-05-07T04:15:29.999Z,0.80
2018-05-07T04:18:09.357Z,0.90
2018-05-07T04:20:48.785Z,0.77
2018-05-07T04:23:28.179Z,1.00
2018-05-07T04:25:56.506Z,0.93
2018-05-07T04:28:23.959Z,1.43
2018-05-07T04:30:51.416Z,1.33
2018-05-07T04:33:19.146Z,1.10
2018-05-07T04:35:46.599Z,1.10
2018-05-07T04:38:14.090Z,1.13
2018-05-07T04:40:41.854Z,1.00
2018-05-07T04:43:09.312Z,1.03
2018-05-07T04:45:36.747Z,0.80
2018-05-07T04:48:05.370Z,1.00
2018-05-07T04:50:32.818Z,0.93
2018-05-07T04:53:00.272Z,0.90
2018-05-07T04:55:28.143Z,1.03
2018-05-07T04:57:55.588Z,1.10
2018-05-07T05:00:23.030Z,1.10
2018-05-07T05:02:50.714Z,0.90
2018-05-07T05:05:18.169Z,1.20
2018-05-07T05:07:49.831Z,0.70
2018-05-07T05:10:17.589Z,0.90
2018-05-07T05:12:45.405Z,0.70
2018-05-07T05:15:13.607Z,1.00
2018-05-07T05:17:41.119Z,1.30
2018-05-07T05:20:09.326Z,1.50
2018-05-07T05:22:36.768Z,1.60
2018-05-07T05:25:05.894Z,1.20
2018-05-07T05:27:33.379Z,1.13
2018-05-07T05:30:00.821Z,1.43
2018-05-07T05:32:28.323Z,1.40
2018-05-07T05:34:55.773Z,1.93
2018-05-07T05:37:23.255Z,1.50
2018-05-07T05:39:50.931Z,1.60
2018-05-07T05:42:18.422Z,1.60
2018-05-07T05:44:45.895Z,1.33
2018-05-07T05:47:14.474Z,1.70
2018-05-07T05:49:41.915Z,1.50
2018-05-07T05:52:09.396Z,1.60
2018-05-07T05:54:37.247Z,1.43
2018-05-07T05:57:04.697Z,1.50
2018-05-07T05:59:32.175Z,1.87
2018-05-07T06:02:00.146Z,1.62
2018-05-07T06:04:27.602Z,1.42
2018-05-07T06:06:55.063Z,1.58
2018-05-07T06:09:26.828Z,1.45
2018-05-07T06:11:55.102Z,1.30
2018-05-07T06:14:23.321Z,1.50
2018-05-07T06:16:51.858Z,1.42
2018-05-07T06:19:19.300Z,1.40
2018-05-07T06:21:46.750Z,1.60
2018-05-07T06:24:14.535Z,1.60
2018-05-07T06:26:41.977Z,1.40
2018-05-07T06:29:09.423Z,1.25
2018-05-07T06:31:37.735Z,1.33
2018-05-07T06:34:05.191Z,1.30
2018-05-07T06:36:32.646Z,1.30
2018-05-07T06:39:00.409Z,1.40
2018-05-07T06:41:27.851Z,1.67
2018-05-07T06:43:55.302Z,1.40
2018-05-07T06:46:22.995Z,1.50
2018-05-07T06:48:50.446Z,1.77
2018-05-07T06:51:17.899Z,1.40
2018-05-07T06:53:46.171Z,1.50
2018-05-07T06:56:13.619Z,1.17
2018-05-07T06:58:41.056Z,1.50
2018-05-07T07:01:08.921Z,1.53
2018-05-07T07:03:36.419Z,1.10
2018-05-07T07:06:03.864Z,1.30
2018-05-07T07:08:33.792Z,1.50
2018-05-07T07:11:01.095Z,1.30
2018-05-07T07:13:28.595Z,1.60
2018-05-07T07:15:56.271Z,1.87
2018-05-07T07:18:23.731Z,2.23
2018-05-07T07:20:51.171Z,2.13
2018-05-07T07:23:18.962Z,2.10
2018-05-07T07:25:46.513Z,2.37
2018-05-07T07:28:14.046Z,2.23
2018-05-07T07:30:45.443Z,2.58
2018-05-07T07:33:12.876Z,2.30
2018-05-07T07:35:40.317Z,2.30
2018-05-07T07:38:07.952Z,2.37
2018-05-07T07:40:35.398Z,2.28
2018-05-07T07:43:02.851Z,2.22
2018-05-07T07:45:31.497Z,2.50
2018-05-07T07:47:58.938Z,2.17
2018-05-07T07:50:26.410Z,2.57
2018-05-07T07:52:55.399Z,2.27
2018-05-07T07:55:22.843Z,2.20
2018-05-07T07:57:50.286Z,2.10
2018-05-07T08:00:18.226Z,2.30
2018-05-07T08:02:46.444Z,2.15
2018-05-07T08:05:13.879Z,2.07
2018-05-07T08:07:44.048Z,2.17
2018-05-07T08:10:11.495Z,2.20
2018-05-07T08:12:39.088Z,2.22
2018-05-07T08:15:07.443Z,2.57
2018-05-07T08:17:35.651Z,2.47
2018-05-07T08:20:03.863Z,2.40
2018-05-07T08:22:31.641Z,2.35
2018-05-07T08:24:59.081Z,1.90
2018-05-07T08:27:26.520Z,2.10
2018-05-07T08:29:56.169Z,1.90
2018-05-07T08:32:23.635Z,1.90
2018-05-07T08:34:51.072Z,1.87
2018-05-07T08:37:19.574Z,1.77
2018-05-07T08:39:47.020Z,2.00
2018-05-07T08:42:14.476Z,1.90
2018-05-07T08:44:42.043Z,1.90
2018-05-07T08:47:09.486Z,2.03
2018-05-07T08:49:37.000Z,1.70
2018-05-07T08:52:05.446Z,1.50
2018-05-07T08:54:32.885Z,1.73
2018-05-07T08:57:00.347Z,1.70
2018-05-07T08:59:27.914Z,1.67
2018-05-07T09:01:55.358Z,2.10
2018-05-07T09:04:22.806Z,1.37
2018-05-07T09:06:50.495Z,1.50
2018-05-07T09:09:19.515Z,1.42
2018-05-07T09:11:47.723Z,1.80
2018-05-07T09:14:15.206Z,1.83
2018-05-07T09:16:42.651Z,1.77
2018-05-07T09:19:10.135Z,1.50
2018-05-07T09:21:37.626Z,1.63
2018-05-07T09:24:05.866Z,1.70
2018-05-07T09:26:33.315Z,1.60
2018-05-07T09:29:01.262Z,1.70
2018-05-07T09:31:28.749Z,1.53
2018-05-07T09:33:56.159Z,1.57
2018-05-07T09:36:23.680Z,1.90
2018-05-07T09:38:51.119Z,1.60
2018-05-07T09:41:18.570Z,1.90
2018-05-07T09:43:46.138Z,1.60
2018-05-07T09:46:13.598Z,2.15
2018-05-07T09:48:41.069Z,1.60
2018-05-07T09:51:09.315Z,1.80
2018-05-07T09:53:36.759Z,1.83
2018-05-07T09:56:04.198Z,1.80
2018-05-07T09:58:31.909Z,1.50
2018-05-07T10:00:59.353Z,1.92
2018-05-07T10:03:26.843Z,1.60
2018-05-07T10:05:54.498Z,1.37
2018-05-07T10:08:23.594Z,1.60
2018-05-07T10:10:51.051Z,1.77
2018-05-07T10:13:19.632Z,2.00
2018-05-07T10:15:47.186Z,1.73
2018-05-07T10:18:14.631Z,1.45
2018-05-07T10:20:42.399Z,1.90
2018-05-07T10:23:09.841Z,1.47
2018-05-07T10:25:37.289Z,1.73
2018-05-07T10:28:05.196Z,1.67
2018-05-07T10:30:32.638Z,1.47
2018-05-07T10:33:00.113Z,1.40
2018-05-07T10:35:27.667Z,1.63
2018-05-07T10:37:55.130Z,1.73
2018-05-07T10:40:22.703Z,1.50
2018-05-07T10:42:50.457Z,1.50
2018-05-07T10:45:17.893Z,1.60
2018-05-07T10:47:45.354Z,1.40
2018-05-07T10:50:13.638Z,1.40
2018-05-07T10:52:41.085Z,1.40
2018-05-07T10:55:08.535Z,1.60
2018-05-07T10:57:36.155Z,1.60
2018-05-07T11:00:04.403Z,1.50
2018-05-07T11:02:31.851Z,1.30
2018-05-07T11:04:59.505Z,1.70
2018-05-07T11:07:29.232Z,1.47
2018-05-07T11:09:56.686Z,1.50
2018-05-07T11:12:24.256Z,1.50
2018-05-07T11:14:51.688Z,1.42
2018-05-07T11:17:19.200Z,1.40
2018-05-07T11:19:47.546Z,1.70
2018-05-07T11:22:14.982Z,1.30
2018-05-07T11:24:42.458Z,1.30
2018-05-07T11:27:10.544Z,1.80
2018-05-07T11:29:37.975Z,1.30
2018-05-07T11:32:05.426Z,1.37
2018-05-07T11:34:33.096Z,1.50
2018-05-07T11:37:00.559Z,1.37
2018-05-07T11:39:28.117Z,1.30
2018-05-07T11:41:56.095Z,1.43
2018-05-07T11:44:23.533Z,1.30
2018-05-07T11:46:50.995Z,1.30
2018-05-07T11:49:19.786Z,1.30
2018-05-07T11:51:47.238Z,1.57
2018-05-07T11:54:14.707Z,1.23
2018-05-07T11:56:42.471Z,1.65
2018-05-07T11:59:09.971Z,1.50
2018-05-07T12:01:38.184Z,1.50
2018-05-07T12:04:06.241Z,1.30
2018-05-07T12:06:33.738Z,1.30
2018-05-07T12:09:13.687Z,1.47
2018-05-07T12:11:41.139Z,1.40
2018-05-07T12:14:08.587Z,1.20
2018-05-07T12:16:36.154Z,1.20
2018-05-07T12:19:03.920Z,1.20
2018-05-07T12:21:31.383Z,1.40
2018-05-07T12:23:59.157Z,1.40
2018-05-07T12:26:26.599Z,1.30
2018-05-07T12:28:54.049Z,1.23
2018-05-07T12:31:23.330Z,1.20
2018-05-07T12:33:50.616Z,1.20
2018-05-07T12:36:18.064Z,1.23
2018-05-07T12:38:45.939Z,1.17
2018-05-07T12:41:13.391Z,1.30
2018-05-07T12:43:40.849Z,1.10
2018-05-07T12:46:08.791Z,1.20
2018-05-07T12:48:36.291Z,1.67
2018-05-07T12:51:03.739Z,1.50
2018-05-07T12:53:34.069Z,1.60
2018-05-07T12:56:01.518Z,1.50
2018-05-07T12:58:28.962Z,1.40
2018-05-07T13:00:56.537Z,1.60
2018-05-07T13:03:23.990Z,1.60
2018-05-07T13:05:51.499Z,1.70
2018-05-07T13:08:20.649Z,1.70
2018-05-07T13:10:48.085Z,1.37
2018-05-07T13:13:15.535Z,1.77
2018-05-07T13:15:44.063Z,1.80
2018-05-07T13:18:11.502Z,1.50
2018-05-07T13:20:39.525Z,1.80
2018-05-07T13:23:08.063Z,1.58
2018-05-07T13:25:35.511Z,1.40
2018-05-07T13:28:02.971Z,1.60
2018-05-07T13:30:31.980Z,1.40
2018-05-07T13:32:59.435Z,1.40
2018-05-07T13:35:26.875Z,1.60
2018-05-07T13:37:54.650Z,1.40
2018-05-07T13:40:22.099Z,1.60
2018-05-07T13:42:49.565Z,1.50
2018-05-07T13:45:17.432Z,1.50
2018-05-07T13:47:44.875Z,1.50
2018-05-07T13:50:12.355Z,1.57
2018-05-07T13:52:40.978Z,1.80
2018-05-07T13:55:09.194Z,1.60
2018-05-07T13:57:36.686Z,2.20
2018-05-07T14:00:04.439Z,2.70
2018-05-07T14:02:31.935Z,2.35
2018-05-07T14:04:59.349Z,2.27
2018-05-07T14:07:27.116Z,2.60
2018-05-07T14:09:57.343Z,2.77
2018-05-07T14:12:24.797Z,2.60
2018-05-07T14:14:52.563Z,2.50
2018-05-07T14:17:20.019Z,2.27
2018-05-07T14:19:47.575Z,2.08
2018-05-07T14:22:15.650Z,2.30
2018-05-07T14:24:43.095Z,2.20
2018-05-07T14:27:10.560Z,2.33
2018-05-07T14:29:39.135Z,2.30
2018-05-07T14:32:06.606Z,2.33
2018-05-07T14:34:34.063Z,2.30
2018-05-07T14:37:02.018Z,2.67
2018-05-07T14:39:29.470Z,2.10
2018-05-07T14:41:56.951Z,2.03
2018-05-07T14:44:24.723Z,2.20
2018-05-07T14:46:52.268Z,2.00
2018-05-07T14:49:19.718Z,2.20
2018-05-07T14:51:48.207Z,2.13
2018-05-07T14:54:15.643Z,2.40
2018-05-07T14:56:43.128Z,1.60
2018-05-07T14:59:10.900Z,2.20
2018-05-07T15:01:38.338Z,1.97
2018-05-07T15:04:05.795Z,2.10
2018-05-07T15:06:33.679Z,2.43
2018-05-07T15:09:03.308Z,1.87
2018-05-07T15:11:31.555Z,1.97
2018-05-07T15:14:10.994Z,2.27
2018-05-07T15:16:38.442Z,2.13
2018-05-07T15:19:05.919Z,1.73
2018-05-07T15:21:36.023Z,2.03
2018-05-07T15:24:14.344Z,1.90
2018-05-07T15:26:43.026Z,1.70
2018-05-07T15:29:10.541Z,1.87
2018-05-07T15:31:37.957Z,1.80
2018-05-07T15:34:05.512Z,1.80
2018-05-07T15:36:33.734Z,1.90
2018-05-07T15:39:01.247Z,1.63
2018-05-07T15:41:28.793Z,1.80
2018-05-07T15:43:56.328Z,1.50
2018-05-07T15:46:23.706Z,1.73
2018-05-07T15:48:52.854Z,1.77
2018-05-07T15:51:20.280Z,2.22
2018-05-07T15:53:47.752Z,1.93
2018-05-07T15:56:15.541Z,1.70
2018-05-07T15:58:42.984Z,1.97
2018-05-07T16:01:11.199Z,1.93
2018-05-07T16:03:38.882Z,1.67
2018-05-07T16:06:08.197Z,1.60
2018-05-07T16:08:38.007Z,1.70
2018-05-07T16:11:05.779Z,1.63
2018-05-07T16:13:33.215Z,1.80
2018-05-07T16:16:00.704Z,1.93
2018-05-07T16:18:28.574Z,1.60
2018-05-07T16:20:56.091Z,1.62
2018-05-07T16:23:23.697Z,1.43
2018-05-07T16:25:52.857Z,1.43
2018-05-07T16:28:20.379Z,1.50
2018-05-07T16:30:47.771Z,1.50
2018-05-07T16:33:15.542Z,1.40
2018-05-07T16:35:43.055Z,1.80
2018-05-07T16:38:10.460Z,1.23
2018-05-07T16:40:38.203Z,1.33
2018-05-07T16:43:05.646Z,1.43
2018-05-07T16:45:33.147Z,1.25
2018-05-07T16:48:01.839Z,1.55
2018-05-07T16:50:29.275Z,1.87
2018-05-07T16:52:56.718Z,1.50
2018-05-07T16:55:24.303Z,1.37
2018-05-07T16:57:51.759Z,1.23
2018-05-07T17:00:19.218Z,1.27
2018-05-07T17:02:46.794Z,2.10
2018-05-07T17:05:14.340Z,1.77
2018-05-07T17:07:44.254Z,2.70
2018-05-07T17:10:12.036Z,2.03
2018-05-07T17:12:39.491Z,2.72
2018-05-07T17:15:06.936Z,2.33
2018-05-07T17:17:34.942Z,2.83
2018-05-07T17:20:03.171Z,2.20
2018-05-07T17:22:30.623Z,2.53
2018-05-07T17:24:59.595Z,2.80
2018-05-07T17:27:28.434Z,3.50
2018-05-07T17:29:56.061Z,3.40
2018-05-07T17:32:23.815Z,4.60
2018-05-07T17:34:51.277Z,4.20
2018-05-07T17:37:18.715Z,12.13
2018-05-07T17:39:46.322Z,11.43
2018-05-07T17:42:13.886Z,15.30
2018-05-07T17:44:54.586Z,12.13
2018-05-07T17:47:34.718Z,14.03
2018-05-07T17:50:04.827Z,14.50
2018-05-07T17:52:32.283Z,14.90
2018-05-07T17:54:59.725Z,15.13
2018-05-07T17:57:27.573Z,15.80
2018-05-07T17:59:55.037Z,14.95
2018-05-07T18:02:22.508Z,15.65
2018-05-07T18:04:52.019Z,15.75
2018-05-07T18:07:19.487Z,15.73
2018-05-07T18:09:50.627Z,15.33
2018-05-07T18:12:18.303Z,14.40
2018-05-07T18:14:45.779Z,15.38
2018-05-07T18:17:14.022Z,14.80
2018-05-07T18:19:41.600Z,14.48
2018-05-07T18:22:09.157Z,14.35
2018-05-07T18:24:36.698Z,14.03
2018-05-07T18:27:05.517Z,13.63
2018-05-07T18:29:32.959Z,14.20
2018-05-07T18:32:00.535Z,13.62
2018-05-07T18:34:28.318Z,12.95
2018-05-07T18:36:56.545Z,13.18
2018-05-07T18:39:24.034Z,11.48
2018-05-07T18:41:51.635Z,12.30
2018-05-07T18:44:19.150Z,11.50
2018-05-07T18:46:46.701Z,12.43
2018-05-07T18:49:14.975Z,13.05
2018-05-07T18:51:42.455Z,11.70
2018-05-07T18:54:10.683Z,11.27
2018-05-07T18:56:38.520Z,10.65
2018-05-07T18:59:05.981Z,10.82
2018-05-07T19:01:33.495Z,10.60
2018-05-07T19:04:01.011Z,10.20
2018-05-07T19:06:28.470Z,9.33
2018-05-07T19:08:57.843Z,8.93
2018-05-07T19:11:26.491Z,8.20
2018-05-07T19:13:53.939Z,8.65
2018-05-07T19:16:21.440Z,8.65
2018-05-07T19:18:49.996Z,8.80
2018-05-07T19:21:17.717Z,9.00
2018-05-07T19:23:45.194Z,8.60
2018-05-07T19:26:14.104Z,7.60
2018-05-07T19:28:41.555Z,8.52
2018-05-07T19:31:08.999Z,8.25
2018-05-07T19:33:36.552Z,7.53
2018-05-07T19:36:04.086Z,7.60
2018-05-07T19:38:31.459Z,7.45
2018-05-07T19:40:59.132Z,7.97
2018-05-07T19:43:26.627Z,7.10
2018-05-07T19:45:54.077Z,7.00
2018-05-07T19:48:22.073Z,6.87
2018-05-07T19:50:50.288Z,6.60
2018-05-07T19:53:17.737Z,6.45
2018-05-07T19:55:45.589Z,6.47
2018-05-07T19:58:13.015Z,6.83
2018-05-07T20:00:41.235Z,5.68
2018-05-07T20:03:08.937Z,6.63
2018-05-07T20:05:37.227Z,6.47
2018-05-07T20:08:07.242Z,6.67
2018-05-07T20:10:35.103Z,6.53
2018-05-07T20:13:02.560Z,5.93
2018-05-07T20:15:30.127Z,5.65
2018-05-07T20:17:58.592Z,6.05
2018-05-07T20:20:26.060Z,6.10
2018-05-07T20:22:53.519Z,6.13
2018-05-07T20:25:22.310Z,5.30
2018-05-07T20:27:49.746Z,5.37
2018-05-07T20:30:17.195Z,5.40
2018-05-07T20:32:45.085Z,5.47
2018-05-07T20:35:12.527Z,4.65
2018-05-07T20:37:39.993Z,5.18
2018-05-07T20:40:07.595Z,4.97
2018-05-07T20:42:35.803Z,5.10
2018-05-07T20:45:03.270Z,5.40
2018-05-07T20:47:32.181Z,5.32
2018-05-07T20:49:59.631Z,5.18
2018-05-07T20:52:27.088Z,5.28
2018-05-07T20:54:54.966Z,4.93
2018-05-07T20:57:22.425Z,4.17
2018-05-07T20:59:49.871Z,4.27
2018-05-07T21:02:17.747Z,4.68
2018-05-07T21:04:45.208Z,4.22
2018-05-07T21:07:12.780Z,4.10
2018-05-07T21:09:43.603Z,3.87
2018-05-07T21:12:11.050Z,4.22
2018-05-07T21:14:38.506Z,4.23
2018-05-07T21:17:06.383Z,3.83
2018-05-07T21:19:33.833Z,4.20
2018-05-07T21:22:01.283Z,4.27
2018-05-07T21:24:29.079Z,4.13
2018-05-07T21:26:56.622Z,3.73
2018-05-07T21:29:24.066Z,3.83
2018-05-07T21:31:52.626Z,3.60
2018-05-07T21:34:20.088Z,3.90
2018-05-07T21:36:47.596Z,4.07
2018-05-07T21:39:15.346Z,3.90
2018-05-07T21:41:42.794Z,3.33
2018-05-07T21:44:10.252Z,3.50
2018-05-07T21:46:38.027Z,3.50
2018-05-07T21:49:05.493Z,3.80
2018-05-07T21:51:32.933Z,3.47
2018-05-07T21:54:01.747Z,3.45
2018-05-07T21:56:29.199Z,4.03
2018-05-07T21:58:56.681Z,3.55
2018-05-07T22:01:25.235Z,3.23
2018-05-07T22:03:52.673Z,3.45
2018-05-07T22:06:20.151Z,3.78
2018-05-07T22:08:50.675Z,3.03
2018-05-07T22:11:18.393Z,3.20
2018-05-07T22:13:45.851Z,3.37
2018-05-07T22:16:13.555Z,3.12
2018-05-07T22:18:41.015Z,3.90
2018-05-07T22:21:08.458Z,3.53
2018-05-07T22:23:36.134Z,3.37
2018-05-07T22:26:03.665Z,3.30
2018-05-07T22:28:31.042Z,2.65
2018-05-07T22:30:59.429Z,3.30
2018-05-07T22:33:26.883Z,3.20
2018-05-07T22:35:54.347Z,3.23
2018-05-07T22:38:22.098Z,3.20
2018-05-07T22:40:49.550Z,2.80
2018-05-07T22:43:17.025Z,3.25
2018-05-07T22:45:44.792Z,2.92
2018-05-07T22:48:12.343Z,2.83
2018-05-07T22:50:39.877Z,3.17
2018-05-07T22:53:07.979Z,2.75
2018-05-07T22:55:35.423Z,2.72
2018-05-07T22:58:02.915Z,2.60
2018-05-07T23:00:30.664Z,2.75
2018-05-07T23:02:58.106Z,2.50
2018-05-07T23:05:25.577Z,2.92
2018-05-07T23:07:57.328Z,3.05
2018-05-07T23:10:24.774Z,3.10
2018-05-07T23:12:52.403Z,2.53
2018-05-07T23:15:20.072Z,2.70
2018-05-07T23:17:47.563Z,3.10
2018-05-07T23:20:15.007Z,2.47
2018-05-07T23:22:42.694Z,2.65
2018-05-07T23:25:10.139Z,2.50
2018-05-07T23:27:37.597Z,2.53
2018-05-07T23:30:05.781Z,2.60
2018-05-07T23:32:39.179Z,2.95
2018-05-07T23:35:06.740Z,3.15
2018-05-07T23:37:34.183Z,2.40
2018-05-07T23:40:01.656Z,2.60
2018-05-07T23:42:29.319Z,2.40
2018-05-07T23:44:56.774Z,2.50
2018-05-07T23:47:24.230Z,2.50
2018-05-07T23:49:52.006Z,2.57
2018-05-07T23:52:19.555Z,2.60
2018-05-07T23:54:47.024Z,2.33
2018-05-07T23:57:14.983Z,2.57
2018-05-07T23:59:42.449Z,2.33
